Time;durP1;ratioP1;P1;durP2;ratioP2;P2;SDS_P1;SDS_P2;PMS_P1;PMS_P2;Temp;Humidity;BMP_temperature;BMP_pressure;BME280_temperature;BME280_humidity;BME280_pressure;Samples;Min_cycle;Max_cycle;Signal;HPM_P1;HPM_P2
2023/05/16 00:00:24;;;;;;;5.82;4.72;;;;;;;;;;6119662;23;20024;-83
2023/05/16 00:03:06;;;;;;;6.18;4.85;;;;;;;;;;6117351;23;20022;-83
2023/05/16 00:05:39;;;;;;;5.00;4.38;;;;;;;;;;6118144;23;20030;-83
2023/05/16 00:08:13;;;;;;;5.63;4.60;;;;;;;;;;6118172;23;20435;-84
2023/05/16 00:10:47;;;;;;;9.13;4.90;;;;;;;;;;6119383;23;20101;-83
2023/05/16 00:13:15;;;;;;;7.47;4.97;;;;;;;;;;6118607;23;20026;-83
2023/05/16 00:15:43;;;;;;;5.20;4.70;;;;;;;;;;6120053;23;20022;-83
2023/05/16 00:18:16;;;;;;;8.73;5.60;;;;;;;;;;6118225;23;20100;-83
2023/05/16 00:20:44;;;;;;;7.43;5.35;;;;;;;;;;6119224;23;20061;-83
2023/05/16 00:23:18;;;;;;;6.88;5.03;;;;;;;;;;6119499;23;20026;-83
2023/05/16 00:25:46;;;;;;;8.55;4.65;;;;;;;;;;6095469;23;20030;-83
2023/05/16 00:28:13;;;;;;;9.05;5.00;;;;;;;;;;6120568;23;20494;-83
2023/05/16 00:30:47;;;;;;;10.02;5.30;;;;;;;;;;6120995;23;20110;-82
2023/05/16 00:33:15;;;;;;;5.57;4.97;;;;;;;;;;6120554;23;20294;-83
2023/05/16 00:35:42;;;;;;;6.00;5.03;;;;;;;;;;6120133;23;20340;-83
2023/05/16 00:38:16;;;;;;;8.80;5.30;;;;;;;;;;6120011;23;20466;-83
2023/05/16 00:40:43;;;;;;;5.93;5.32;;;;;;;;;;6095522;23;20076;-83
2023/05/16 00:43:16;;;;;;;6.50;5.43;;;;;;;;;;6119954;23;20025;-83
2023/05/16 00:45:44;;;;;;;8.15;5.63;;;;;;;;;;6120846;23;20404;-83
2023/05/16 00:48:12;;;;;;;7.18;5.28;;;;;;;;;;6120419;23;20018;-83
2023/05/16 00:50:46;;;;;;;7.57;5.70;;;;;;;;;;6096272;23;20084;-83
2023/05/16 00:53:14;;;;;;;6.50;5.70;;;;;;;;;;6120572;23;20097;-83
2023/05/16 00:55:41;;;;;;;12.93;6.03;;;;;;;;;;6120568;23;20057;-83
2023/05/16 00:58:14;;;;;;;8.60;5.80;;;;;;;;;;6121001;23;20022;-84
2023/05/16 01:00:42;;;;;;;8.98;5.93;;;;;;;;;;6120968;23;20105;-81
2023/05/16 01:03:09;;;;;;;6.85;5.80;;;;;;;;;;6118803;23;20026;-82
2023/05/16 01:05:42;;;;;;;8.27;6.72;;;;;;;;;;6120529;23;20073;-81
2023/05/16 01:08:10;;;;;;;6.75;6.07;;;;;;;;;;6120087;23;20030;-81
2023/05/16 01:10:46;;;;;;;7.20;5.88;;;;;;;;;;6121522;23;20068;-82
2023/05/16 01:13:27;;;;;;;7.93;6.70;;;;;;;;;;6120820;23;20470;-82
2023/05/16 01:16:04;;;;;;;7.47;6.50;;;;;;;;;;6121316;23;20074;-82
2023/05/16 01:19:08;;;;;;;6.18;5.60;;;;;;;;;;6121691;23;20053;-82
2023/05/16 01:21:50;;;;;;;6.50;5.90;;;;;;;;;;5980787;23;20055;-82
2023/05/16 01:24:18;;;;;;;11.52;6.47;;;;;;;;;;6110253;23;20401;-81
2023/05/16 01:26:52;;;;;;;7.20;6.50;;;;;;;;;;6119588;23;20422;-82
2023/05/16 01:29:19;;;;;;;9.60;6.65;;;;;;;;;;6120105;23;20065;-82
2023/05/16 01:31:47;;;;;;;8.07;6.80;;;;;;;;;;6119286;23;20101;-81
2023/05/16 01:34:20;;;;;;;9.27;6.95;;;;;;;;;;6093903;23;20463;-81
2023/05/16 01:36:52;;;;;;;9.73;6.20;;;;;;;;;;6120764;23;20101;-82
2023/05/16 01:39:32;;;;;;;7.85;6.93;;;;;;;;;;6118565;23;20164;-81
2023/05/16 01:42:07;;;;;;;7.90;6.60;;;;;;;;;;6119643;23;20022;-81
2023/05/16 01:45:03;;;;;;;8.00;6.63;;;;;;;;;;6118752;23;20026;-81
2023/05/16 01:47:32;;;;;;;;;;;;;;;;;;6119248;23;20093;-81
2023/05/16 01:50:19;;;;;;;7.30;6.60;;;;;;;;;;6118380;23;19928;-82
2023/05/16 01:52:52;;;;;;;8.90;7.22;;;;;;;;;;6093113;23;20109;-82
2023/05/16 01:55:36;;;;;;;9.35;7.50;;;;;;;;;;6118890;23;20118;-81
2023/05/16 01:58:04;;;;;;;10.23;8.80;;;;;;;;;;6119266;23;20105;-81
2023/05/16 02:00:39;;;;;;;12.73;8.73;;;;;;;;;;6119071;23;20105;-81
2023/05/16 02:03:13;;;;;;;11.43;7.65;;;;;;;;;;6115318;23;20026;-81
2023/05/16 02:05:54;;;;;;;8.02;7.15;;;;;;;;;;6090249;23;20354;-81
2023/05/16 02:08:21;;;;;;;9.48;8.27;;;;;;;;;;6090042;23;20030;-81
2023/05/16 02:10:55;;;;;;;10.77;8.65;;;;;;;;;;6119838;23;20060;-81
2023/05/16 02:13:23;;;;;;;11.82;10.02;;;;;;;;;;6118674;23;20424;-81
2023/05/16 02:15:50;;;;;;;14.23;9.63;;;;;;;;;;6117429;23;20109;-82
2023/05/16 02:18:23;;;;;;;10.57;9.13;;;;;;;;;;6117331;23;20061;-81
2023/05/16 02:20:51;;;;;;;9.05;8.13;;;;;;;;;;6118171;23;20286;-82
2023/05/16 02:23:25;;;;;;;11.85;10.45;;;;;;;;;;6118064;23;20229;-81
2023/05/16 02:25:52;;;;;;;16.13;10.15;;;;;;;;;;6118612;23;20029;-81
2023/05/16 02:28:19;;;;;;;12.75;10.48;;;;;;;;;;6117428;23;20030;-81
2023/05/16 02:31:00;;;;;;;16.27;9.60;;;;;;;;;;6118698;23;20026;-81
2023/05/16 02:33:28;;;;;;;11.23;10.00;;;;;;;;;;6117993;23;20021;-81
2023/05/16 02:36:02;;;;;;;12.68;9.25;;;;;;;;;;6118283;23;20028;-81
2023/05/16 02:38:29;;;;;;;11.25;9.50;;;;;;;;;;6118219;23;20420;-81
2023/05/16 02:40:56;;;;;;;14.90;9.70;;;;;;;;;;6117648;23;20056;-79
2023/05/16 02:43:30;;;;;;;12.02;10.70;;;;;;;;;;6092585;23;20026;-79
2023/05/16 02:45:58;;;;;;;13.63;10.20;;;;;;;;;;6118182;23;20402;-81
2023/05/16 02:48:32;;;;;;;12.07;9.70;;;;;;;;;;6117250;23;20489;-79
2023/05/16 02:50:59;;;;;;;8.48;7.68;;;;;;;;;;6117681;23;20033;-81
2023/05/16 02:53:26;;;;;;;9.30;6.57;;;;;;;;;;6118794;23;20057;-82
2023/05/16 02:55:59;;;;;;;7.30;6.60;;;;;;;;;;6118559;23;20057;-81
2023/05/16 02:58:26;;;;;;;9.85;8.38;;;;;;;;;;6117736;23;20030;-81
2023/05/16 03:01:01;;;;;;;9.15;7.78;;;;;;;;;;6117868;23;20109;-81
2023/05/16 03:03:35;;;;;;;11.95;8.40;;;;;;;;;;6115076;23;20466;-81
2023/05/16 03:06:16;;;;;;;13.55;8.40;;;;;;;;;;6117554;23;20026;-81
2023/05/16 03:08:50;;;;;;;13.50;9.48;;;;;;;;;;6119148;23;20101;-81
2023/05/16 03:11:25;;;;;;;14.00;9.20;;;;;;;;;;6096015;23;20104;-81
2023/05/16 03:13:52;;;;;;;10.98;9.75;;;;;;;;;;6119712;23;20026;-80
2023/05/16 03:16:20;;;;;;;9.85;8.75;;;;;;;;;;6118240;23;20493;-81
2023/05/16 03:18:54;;;;;;;10.77;8.85;;;;;;;;;;6118584;23;20032;-81
2023/05/16 03:21:21;;;;;;;10.77;8.65;;;;;;;;;;6120297;23;20025;-81
2023/05/16 03:23:54;;;;;;;8.25;7.30;;;;;;;;;;6097068;23;20105;-81
2023/05/16 03:26:22;;;;;;;8.30;7.35;;;;;;;;;;6121950;23;20128;-81
2023/05/16 03:28:50;;;;;;;9.27;8.38;;;;;;;;;;6120408;23;20518;-81
2023/05/16 03:31:23;;;;;;;9.93;8.65;;;;;;;;;;6121629;23;20477;-81
2023/05/16 03:33:51;;;;;;;11.43;8.15;;;;;;;;;;6117495;23;20085;-81
2023/05/16 03:36:25;;;;;;;10.15;8.48;;;;;;;;;;6121823;23;20125;-82
2023/05/16 03:38:52;;;;;;;13.60;9.15;;;;;;;;;;6120970;23;20259;-81
2023/05/16 03:41:27;;;;;;;13.32;9.90;;;;;;;;;;6121518;23;20037;-81
2023/05/16 03:43:54;;;;;;;15.05;9.70;;;;;;;;;;6120549;23;20359;-81
2023/05/16 03:46:21;;;;;;;11.82;9.70;;;;;;;;;;6119791;23;20032;-81
2023/05/16 03:48:54;;;;;;;13.90;9.68;;;;;;;;;;6119669;23;20026;-81
2023/05/16 03:51:22;;;;;;;14.18;9.75;;;;;;;;;;6094832;23;20110;-81
2023/05/16 03:53:56;;;;;;;13.23;10.07;;;;;;;;;;6093949;23;20030;-81
2023/05/16 03:56:23;;;;;;;11.82;8.73;;;;;;;;;;6120475;23;20026;-81
2023/05/16 03:58:50;;;;;;;11.10;9.32;;;;;;;;;;6119803;23;20030;-81
2023/05/16 04:01:24;;;;;;;11.48;10.20;;;;;;;;;;6118970;23;20399;-81
2023/05/16 04:03:57;;;;;;;;;;;;;;;;;;6116540;23;20025;-81
2023/05/16 04:06:38;;;;;;;11.40;8.70;;;;;;;;;;6096906;23;19924;-81
2023/05/16 04:09:12;;;;;;;12.20;9.07;;;;;;;;;;6120939;23;20044;-81
2023/05/16 04:11:47;;;;;;;10.23;9.23;;;;;;;;;;6097972;23;20474;-81
2023/05/16 04:14:14;;;;;;;;;;;;;;;;;;6120904;23;20119;-82
2023/05/16 04:16:47;;;;;;;9.20;7.70;;;;;;;;;;6120234;23;19921;-82
2023/05/16 04:19:22;;;;;;;11.40;8.25;;;;;;;;;;6121272;23;20026;-81
2023/05/16 04:21:50;;;;;;;11.65;8.23;;;;;;;;;;6121894;23;20030;-81
2023/05/16 04:24:18;;;;;;;13.15;8.18;;;;;;;;;;6119125;23;20018;-82
2023/05/16 04:26:51;;;;;;;9.23;8.23;;;;;;;;;;6121234;23;20065;-81
2023/05/16 04:29:20;;;;;;;9.10;8.13;;;;;;;;;;6121878;23;20482;-81
2023/05/16 04:31:53;;;;;;;9.60;8.50;;;;;;;;;;6121430;23;20026;-81
2023/05/16 04:34:26;;;;;;;9.25;7.93;;;;;;;;;;6120375;23;20030;-81
2023/05/16 04:37:01;;;;;;;11.63;7.68;;;;;;;;;;6097729;23;20053;-82
2023/05/16 04:39:28;;;;;;;13.13;8.23;;;;;;;;;;6122316;23;20026;-81
2023/05/16 04:41:58;;;;;;;9.18;7.85;;;;;;;;;;6120715;23;20049;-81
2023/05/16 04:44:31;;;;;;;9.77;7.85;;;;;;;;;;6122242;23;20076;-81
2023/05/16 04:46:59;;;;;;;9.18;7.70;;;;;;;;;;6121190;23;20431;-82
2023/05/16 04:49:33;;;;;;;11.63;8.55;;;;;;;;;;6120588;23;20379;-82
2023/05/16 04:52:00;;;;;;;11.35;8.43;;;;;;;;;;6119859;23;20101;-81
2023/05/16 04:54:27;;;;;;;9.23;7.50;;;;;;;;;;6119268;23;20030;-81
2023/05/16 04:57:00;;;;;;;7.57;6.88;;;;;;;;;;6118644;23;20093;-81
2023/05/16 04:59:27;;;;;;;11.75;7.43;;;;;;;;;;6117881;23;20057;-81
2023/05/16 05:02:03;;;;;;;9.45;7.18;;;;;;;;;;6117933;23;20093;-81
2023/05/16 05:04:36;;;;;;;7.80;7.10;;;;;;;;;;6109434;23;20093;-81
2023/05/16 05:07:11;;;;;;;9.05;8.10;;;;;;;;;;6117177;23;20033;-82
2023/05/16 05:09:38;;;;;;;7.82;7.03;;;;;;;;;;6117959;23;20022;-82
2023/05/16 05:12:06;;;;;;;8.32;7.55;;;;;;;;;;6118774;23;20069;-82
2023/05/16 05:14:40;;;;;;;11.20;8.13;;;;;;;;;;6121801;23;20367;-82
2023/05/16 05:17:08;;;;;;;11.73;8.60;;;;;;;;;;6121271;23;20025;-81
2023/05/16 05:19:42;;;;;;;9.90;7.05;;;;;;;;;;6120276;23;20080;-81
2023/05/16 05:22:09;;;;;;;11.32;8.38;;;;;;;;;;6121344;23;20028;-81
2023/05/16 05:24:37;;;;;;;8.32;7.30;;;;;;;;;;6096108;23;20100;-81
2023/05/16 05:27:11;;;;;;;8.38;7.57;;;;;;;;;;6122602;23;20209;-81
2023/05/16 05:29:38;;;;;;;10.57;8.23;;;;;;;;;;6122131;23;20061;-81
2023/05/16 05:32:11;;;;;;;11.95;8.48;;;;;;;;;;6121173;23;20483;-81
2023/05/16 05:34:39;;;;;;;9.30;8.30;;;;;;;;;;6095992;23;20411;-81
2023/05/16 05:37:06;;;;;;;10.02;7.95;;;;;;;;;;6120869;23;20058;-81
2023/05/16 05:39:39;;;;;;;11.38;7.90;;;;;;;;;;6120345;23;20070;-81
2023/05/16 05:42:07;;;;;;;9.73;7.88;;;;;;;;;;6121329;23;20097;-81
2023/05/16 05:44:40;;;;;;;12.10;8.10;;;;;;;;;;6121902;23;20106;-81
2023/05/16 05:47:08;;;;;;;8.25;7.43;;;;;;;;;;6121245;23;20076;-81
2023/05/16 05:49:35;;;;;;;10.20;8.02;;;;;;;;;;6120959;23;20493;-81
2023/05/16 05:52:08;;;;;;;10.65;7.68;;;;;;;;;;6121502;23;20065;-82
2023/05/16 05:54:36;;;;;;;9.10;8.10;;;;;;;;;;6120592;23;20057;-81
2023/05/16 05:57:03;;;;;;;10.63;7.93;;;;;;;;;;6121286;23;20061;-81
2023/05/16 05:59:36;;;;;;;9.18;8.02;;;;;;;;;;6121194;23;20433;-82
2023/05/16 06:02:04;;;;;;;10.23;8.10;;;;;;;;;;6120777;23;20018;-81
2023/05/16 06:04:44;;;;;;;10.18;8.30;;;;;;;;;;6119304;23;20022;-81
2023/05/16 06:07:12;;;;;;;9.65;7.60;;;;;;;;;;6120542;23;20025;-81
2023/05/16 06:09:45;;;;;;;9.98;7.82;;;;;;;;;;6120405;23;20060;-81
2023/05/16 06:12:19;;;;;;;9.85;8.27;;;;;;;;;;6096535;23;20065;-81
2023/05/16 06:14:47;;;;;;;9.95;8.05;;;;;;;;;;6095178;23;20581;-82
2023/05/16 06:17:14;;;;;;;10.60;8.70;;;;;;;;;;6095128;23;20025;-81
2023/05/16 06:19:47;;;;;;;13.88;8.13;;;;;;;;;;6096235;23;20026;-81
2023/05/16 06:22:15;;;;;;;11.27;7.88;;;;;;;;;;6120762;23;20030;-82
2023/05/16 06:24:48;;;;;;;9.80;8.07;;;;;;;;;;6095073;23;20022;-82
2023/05/16 06:27:26;;;;;;;9.95;8.10;;;;;;;;;;6120785;23;20065;-82
2023/05/16 06:29:53;;;;;;;10.60;7.70;;;;;;;;;;6121062;23;20057;-82
2023/05/16 06:32:26;;;;;;;9.07;7.40;;;;;;;;;;6121488;23;20053;-81
2023/05/16 06:34:54;;;;;;;11.95;9.27;;;;;;;;;;6120615;23;20045;-82
2023/05/16 06:37:22;;;;;;;11.63;8.65;;;;;;;;;;6120870;23;20029;-82
2023/05/16 06:39:55;;;;;;;11.45;8.52;;;;;;;;;;6120103;23;20566;-81
2023/05/16 06:42:23;;;;;;;15.18;8.80;;;;;;;;;;6120391;23;20072;-82
2023/05/16 06:44:57;;;;;;;13.88;8.20;;;;;;;;;;6120862;23;20608;-82
2023/05/16 06:47:24;;;;;;;14.23;8.98;;;;;;;;;;6121131;23;20034;-82
2023/05/16 06:49:51;;;;;;;13.00;7.68;;;;;;;;;;6120371;23;20026;-82
2023/05/16 06:52:25;;;;;;;12.60;7.93;;;;;;;;;;6120017;23;20026;-82
2023/05/16 06:54:53;;;;;;;14.45;7.85;;;;;;;;;;6119969;23;20081;-82
2023/05/16 06:57:28;;;;;;;11.32;8.05;;;;;;;;;;6121414;23;20022;-82
2023/05/16 06:59:55;;;;;;;10.93;7.82;;;;;;;;;;6120720;23;20026;-82
2023/05/16 07:02:22;;;;;;;9.85;7.15;;;;;;;;;;6094903;23;20029;-80
2023/05/16 07:05:02;;;;;;;8.27;7.00;;;;;;;;;;6117568;23;20733;-80
2023/05/16 07:07:29;;;;;;;8.70;7.03;;;;;;;;;;6121013;23;20100;-80
2023/05/16 07:10:04;;;;;;;7.40;6.22;;;;;;;;;;6118635;23;20026;-82
2023/05/16 07:12:31;;;;;;;12.23;6.15;;;;;;;;;;6121204;23;20037;-79
2023/05/16 07:14:58;;;;;;;6.40;5.53;;;;;;;;;;6119765;23;20595;-79
2023/05/16 07:17:31;;;;;;;9.40;5.72;;;;;;;;;;6121083;23;20029;-80
2023/05/16 07:19:59;;;;;;;6.57;5.50;;;;;;;;;;6120324;23;20061;-80
2023/05/16 07:22:33;;;;;;;5.82;5.05;;;;;;;;;;6120292;23;20030;-80
2023/05/16 07:25:00;;;;;;;7.68;5.80;;;;;;;;;;6119461;23;20463;-80
2023/05/16 07:27:27;;;;;;;6.00;4.28;;;;;;;;;;6120757;23;20101;-80
2023/05/16 07:30:02;;;;;;;5.75;4.65;;;;;;;;;;6121363;23;20026;-80
2023/05/16 07:32:29;;;;;;;5.80;4.07;;;;;;;;;;6120017;23;20315;-80
2023/05/16 07:35:03;;;;;;;4.60;3.90;;;;;;;;;;6119972;23;20105;-80
2023/05/16 07:37:30;;;;;;;;;;;;;;;;;;6120324;23;20026;-80
2023/05/16 07:39:57;;;;;;;5.78;4.88;;;;;;;;;;6120076;23;19975;-80
2023/05/16 07:42:31;;;;;;;16.23;5.70;;;;;;;;;;6120458;23;20430;-80
2023/05/16 07:44:59;;;;;;;9.00;5.40;;;;;;;;;;6119802;23;20518;-80
2023/05/16 07:47:33;;;;;;;7.00;5.60;;;;;;;;;;6120281;23;20100;-80
2023/05/16 07:50:00;;;;;;;;;;;;;;;;;;6121128;23;20053;-80
2023/05/16 07:52:27;;;;;;;9.00;5.07;;;;;;;;;;6119992;23;19950;-80
2023/05/16 07:55:02;;;;;;;5.38;4.43;;;;;;;;;;6118599;23;20029;-81
2023/05/16 07:57:29;;;;;;;5.90;4.95;;;;;;;;;;6120245;23;20076;-80
2023/05/16 08:00:03;;;;;;;7.53;5.22;;;;;;;;;;6119708;23;20529;-80
2023/05/16 08:02:30;;;;;;;5.43;4.50;;;;;;;;;;6120495;23;20029;-81
2023/05/16 08:04:57;;;;;;;8.70;4.43;;;;;;;;;;6118363;23;20018;-81
2023/05/16 08:07:32;;;;;;;8.63;4.65;;;;;;;;;;6120063;23;20028;-80
2023/05/16 08:09:59;;;;;;;;;;;;;;;;;;6119875;23;20022;-80
2023/05/16 08:12:33;;;;;;;6.10;4.47;;;;;;;;;;6120068;23;19921;-80
2023/05/16 08:15:00;;;;;;;9.57;5.07;;;;;;;;;;6119714;23;20796;-81
2023/05/16 08:17:27;;;;;;;12.60;4.85;;;;;;;;;;6094236;23;20030;-80
2023/05/16 08:20:01;;;;;;;4.82;4.32;;;;;;;;;;6120147;23;20032;-80
2023/05/16 08:22:28;;;;;;;7.47;4.63;;;;;;;;;;6120202;23;20026;-80
2023/05/16 08:25:02;;;;;;;5.72;5.05;;;;;;;;;;6120191;23;20026;-81
2023/05/16 08:27:29;;;;;;;;;;;;;;;;;;6120140;23;20073;-83
2023/05/16 08:29:56;;;;;;;5.95;4.50;;;;;;;;;;6119755;23;19952;-83
2023/05/16 08:32:31;;;;;;;7.78;5.50;;;;;;;;;;6120038;23;20409;-83
2023/05/16 08:34:58;;;;;;;6.93;5.13;;;;;;;;;;6120289;23;20041;-83
2023/05/16 08:37:32;;;;;;;7.60;5.10;;;;;;;;;;6119863;23;20084;-83
2023/05/16 08:39:59;;;;;;;9.48;4.75;;;;;;;;;;6119494;23;20081;-83
2023/05/16 08:42:27;;;;;;;10.32;4.70;;;;;;;;;;6120103;23;20029;-83
2023/05/16 08:45:01;;;;;;;5.28;4.70;;;;;;;;;;6120895;23;20056;-83
2023/05/16 08:47:30;;;;;;;4.53;3.83;;;;;;;;;;6121266;23;20029;-83
2023/05/16 08:50:04;;;;;;;5.82;4.57;;;;;;;;;;6120864;23;20029;-83
2023/05/16 08:52:32;;;;;;;7.50;4.90;;;;;;;;;;6121646;23;20029;-83
2023/05/16 08:55:10;;;;;;;7.55;4.30;;;;;;;;;;6121345;23;20022;-83
2023/05/16 08:57:44;;;;;;;8.60;4.65;;;;;;;;;;6120443;23;20704;-83
2023/05/16 09:00:12;;;;;;;5.57;4.75;;;;;;;;;;6121548;23;20076;-83
2023/05/16 09:02:46;;;;;;;6.45;4.57;;;;;;;;;;6120086;23;20089;-83
2023/05/16 09:05:19;;;;;;;;;;;;;;;;;;6119558;23;20085;-84
2023/05/16 09:07:54;;;;;;;6.32;4.45;;;;;;;;;;6121790;23;20329;-83
2023/05/16 09:10:21;;;;;;;4.65;3.95;;;;;;;;;;6120350;23;20033;-83
2023/05/16 09:12:56;;;;;;;5.03;4.18;;;;;;;;;;6120794;23;20081;-84
2023/05/16 09:15:23;;;;;;;6.65;3.90;;;;;;;;;;6122401;23;20030;-83
2023/05/16 09:17:50;;;;;;;5.50;4.30;;;;;;;;;;6122213;23;20025;-84
2023/05/16 09:20:24;;;;;;;10.40;4.32;;;;;;;;;;6121043;23;20022;-83
2023/05/16 09:22:58;;;;;;;5.30;4.10;;;;;;;;;;6121429;23;20371;-83
2023/05/16 09:25:32;;;;;;;4.57;3.88;;;;;;;;;;6120046;23;20025;-83
2023/05/16 09:28:00;;;;;;;8.27;4.13;;;;;;;;;;6120820;23;20026;-83
2023/05/16 09:30:35;;;;;;;5.05;3.92;;;;;;;;;;6121330;23;20030;-83
2023/05/16 09:33:06;;;;;;;5.32;3.63;;;;;;;;;;6121212;23;20026;-83
2023/05/16 09:35:40;;;;;;;8.32;3.88;;;;;;;;;;6120926;23;20061;-83
2023/05/16 09:38:15;;;;;;;8.05;4.13;;;;;;;;;;6121658;23;20430;-83
2023/05/16 09:40:50;;;;;;;4.65;3.85;;;;;;;;;;6096289;23;20403;-83
2023/05/16 09:43:22;;;;;;;6.78;4.05;;;;;;;;;;6121211;23;20026;-83
2023/05/16 09:45:58;;;;;;;4.25;3.70;;;;;;;;;;6120951;23;20471;-83
2023/05/16 09:48:33;;;;;;;6.57;3.63;;;;;;;;;;6121374;23;20463;-83
2023/05/16 09:51:03;;;;;;;6.10;3.53;;;;;;;;;;6121726;23;20347;-83
2023/05/16 09:53:37;;;;;;;4.43;3.65;;;;;;;;;;6120530;23;20471;-83
2023/05/16 09:56:06;;;;;;;4.43;3.80;;;;;;;;;;6120461;23;20085;-84
2023/05/16 09:58:42;;;;;;;4.72;2.97;;;;;;;;;;6121006;23;20030;-84
2023/05/16 10:01:10;;;;;;;8.35;3.47;;;;;;;;;;6121164;23;20049;-84
2023/05/16 10:03:38;;;;;;;6.72;3.20;;;;;;;;;;6118880;23;20089;-84
2023/05/16 10:06:19;;;;;;;3.88;3.28;;;;;;;;;;6120838;23;20105;-84
2023/05/16 10:08:47;;;;;;;5.05;3.15;;;;;;;;;;6120261;23;20080;-84
2023/05/16 10:11:21;;;;;;;6.63;3.30;;;;;;;;;;6121287;23;20096;-84
2023/05/16 10:13:51;;;;;;;;;;;;;;;;;;6120512;23;20142;-83
2023/05/16 10:16:22;;;;;;;3.75;3.38;;;;;;;;;;6121013;23;19923;-84
2023/05/16 10:18:56;;;;;;;4.63;3.55;;;;;;;;;;6120686;23;20233;-84
2023/05/16 10:21:23;;;;;;;;;;;;;;;;;;6121449;23;20030;-84
2023/05/16 10:23:58;;;;;;;9.43;3.40;;;;;;;;;;6121022;23;19917;-84
2023/05/16 10:26:25;;;;;;;3.78;3.00;;;;;;;;;;6120584;23;20081;-84
2023/05/16 10:29:01;;;;;;;4.40;3.58;;;;;;;;;;6119983;23;20022;-84
2023/05/16 10:31:29;;;;;;;5.82;4.07;;;;;;;;;;6094857;23;20447;-83
2023/05/16 10:34:03;;;;;;;4.18;3.42;;;;;;;;;;6120556;23;20056;-84
2023/05/16 10:36:30;;;;;;;5.97;4.28;;;;;;;;;;6121569;23;20022;-83
2023/05/16 10:38:58;;;;;;;5.63;4.15;;;;;;;;;;6120468;23;20030;-84
2023/05/16 10:41:33;;;;;;;5.65;4.53;;;;;;;;;;6120327;23;20034;-83
2023/05/16 10:44:01;;;;;;;4.97;4.25;;;;;;;;;;6094322;23;20025;-84
2023/05/16 10:46:29;;;;;;;10.25;4.78;;;;;;;;;;6119070;23;20053;-83
2023/05/16 10:49:19;;;;;;;5.05;4.07;;;;;;;;;;6120047;23;20494;-84
2023/05/16 10:52:03;;;;;;;6.47;4.53;;;;;;;;;;6120801;23;20025;-84
2023/05/16 10:54:34;;;;;;;5.73;4.70;;;;;;;;;;6121664;23;20343;-84
2023/05/16 10:57:23;;;;;;;7.05;4.57;;;;;;;;;;6119640;23;20245;-84
2023/05/16 10:59:51;;;;;;;5.03;4.28;;;;;;;;;;6119916;23;20383;-84
2023/05/16 11:02:26;;;;;;;9.70;4.18;;;;;;;;;;6120423;23;20239;-84
2023/05/16 11:05:03;;;;;;;4.65;3.55;;;;;;;;;;6118143;23;20022;-83
2023/05/16 11:08:03;;;;;;;5.18;3.78;;;;;;;;;;6119965;23;20541;-84
2023/05/16 11:10:30;;;;;;;6.00;3.85;;;;;;;;;;6120555;23;20064;-84
2023/05/16 11:13:07;;;;;;;4.43;3.72;;;;;;;;;;6119442;23;20021;-84
2023/05/16 11:15:35;;;;;;;5.32;3.47;;;;;;;;;;6119838;23;20022;-84
2023/05/16 11:18:09;;;;;;;5.45;3.50;;;;;;;;;;6119954;23;20406;-84
2023/05/16 11:20:44;;;;;;;4.15;3.30;;;;;;;;;;6120340;23;20049;-83
2023/05/16 11:23:24;;;;;;;5.18;3.30;;;;;;;;;;6120265;23;20092;-84
2023/05/16 11:25:53;;;;;;;6.63;3.50;;;;;;;;;;6119517;23;20053;-84
2023/05/16 11:28:27;;;;;;;7.55;3.83;;;;;;;;;;6120693;23;20362;-84
2023/05/16 11:30:56;;;;;;;4.93;3.17;;;;;;;;;;6119433;23;20032;-84
2023/05/16 11:33:24;;;;;;;4.90;3.50;;;;;;;;;;6121305;23;20017;-84
2023/05/16 11:36:01;;;;;;;5.75;3.50;;;;;;;;;;6119667;23;20022;-84
2023/05/16 11:38:42;;;;;;;3.40;3.10;;;;;;;;;;6130043;23;20077;-81
2023/05/16 11:41:10;;;;;;;5.60;3.05;;;;;;;;;;6119006;23;20545;-81
2023/05/16 11:43:45;;;;;;;4.45;2.92;;;;;;;;;;6096232;23;20350;-82
2023/05/16 11:46:13;;;;;;;4.97;2.95;;;;;;;;;;6119157;23;20026;-81
2023/05/16 11:48:40;;;;;;;7.93;3.20;;;;;;;;;;6120476;23;20490;-82
2023/05/16 11:51:17;;;;;;;3.72;3.30;;;;;;;;;;6095333;23;20068;-84
2023/05/16 11:53:45;;;;;;;4.50;3.28;;;;;;;;;;6120606;23;20087;-84
2023/05/16 11:56:13;;;;;;;4.65;3.03;;;;;;;;;;6093959;23;20021;-84
2023/05/16 11:58:47;;;;;;;4.75;3.20;;;;;;;;;;6119929;23;20089;-84
2023/05/16 12:01:42;;;;;;;5.47;3.00;;;;;;;;;;6119327;23;20038;-84
2023/05/16 12:04:22;;;;;;;4.78;3.10;;;;;;;;;;6117257;23;20021;-84
2023/05/16 12:07:04;;;;;;;4.65;3.10;;;;;;;;;;6119851;23;20101;-84
2023/05/16 12:09:32;;;;;;;5.47;3.10;;;;;;;;;;6095298;23;20392;-84
2023/05/16 12:12:07;;;;;;;5.38;3.17;;;;;;;;;;6119623;23;20029;-84
2023/05/16 12:14:34;;;;;;;3.75;3.10;;;;;;;;;;6120047;23;20514;-84
2023/05/16 12:17:03;;;;;;;9.68;3.50;;;;;;;;;;6120540;23;20084;-84
2023/05/16 12:19:37;;;;;;;6.00;3.58;;;;;;;;;;6120572;23;20343;-84
2023/05/16 12:22:04;;;;;;;;;;;;;;;;;;6123002;23;20030;-85
2023/05/16 12:24:40;;;;;;;5.10;3.35;;;;;;;;;;6122738;23;20329;-84
2023/05/16 12:27:07;;;;;;;4.88;3.22;;;;;;;;;;6120335;23;20026;-85
2023/05/16 12:29:35;;;;;;;4.85;3.50;;;;;;;;;;6121489;23;20026;-83
2023/05/16 12:32:09;;;;;;;4.40;3.60;;;;;;;;;;6120033;23;20644;-84
2023/05/16 12:34:36;;;;;;;5.10;3.30;;;;;;;;;;6122210;23;20026;-84
2023/05/16 12:37:10;;;;;;;6.68;3.78;;;;;;;;;;6121315;23;20541;-84
2023/05/16 12:39:38;;;;;;;5.45;3.55;;;;;;;;;;6122261;23;20022;-84
2023/05/16 12:42:06;;;;;;;4.78;4.10;;;;;;;;;;6095474;23;20073;-83
2023/05/16 12:44:41;;;;;;;6.28;4.40;;;;;;;;;;6121664;23;20026;-83
2023/05/16 12:47:12;;;;;;;8.93;4.63;;;;;;;;;;6121079;23;20367;-83
2023/05/16 12:49:45;;;;;;;7.45;5.18;;;;;;;;;;6121047;23;20117;-83
2023/05/16 12:52:21;;;;;;;7.13;4.68;;;;;;;;;;6121343;23;20029;-83
2023/05/16 12:54:48;;;;;;;7.35;4.07;;;;;;;;;;6122177;23;20021;-83
2023/05/16 12:57:22;;;;;;;6.03;3.70;;;;;;;;;;6121370;23;20037;-83
2023/05/16 12:59:49;;;;;;;6.97;4.22;;;;;;;;;;6119587;23;20021;-83
2023/05/16 13:02:17;;;;;;;7.45;3.78;;;;;;;;;;6120544;23;20029;-83
2023/05/16 13:04:57;;;;;;;6.55;4.35;;;;;;;;;;6119986;23;20395;-80
2023/05/16 13:07:25;;;;;;;7.88;4.32;;;;;;;;;;6121713;23;20109;-81
2023/05/16 13:09:59;;;;;;;12.35;4.65;;;;;;;;;;6121159;23;20886;-80
2023/05/16 13:12:27;;;;;;;7.95;4.82;;;;;;;;;;6121442;23;20035;-81
2023/05/16 13:14:54;;;;;;;6.30;4.30;;;;;;;;;;6121516;23;20073;-81
2023/05/16 13:17:29;;;;;;;8.15;4.18;;;;;;;;;;6119499;23;20061;-81
2023/05/16 13:19:56;;;;;;;9.10;5.05;;;;;;;;;;6120504;23;20029;-81
2023/05/16 13:22:30;;;;;;;7.45;4.78;;;;;;;;;;6120412;23;20407;-81
2023/05/16 13:24:57;;;;;;;10.02;4.70;;;;;;;;;;6095771;23;20025;-80
2023/05/16 13:27:31;;;;;;;6.28;4.50;;;;;;;;;;6120748;23;20085;-81
2023/05/16 13:29:58;;;;;;;10.57;5.10;;;;;;;;;;6121217;23;20018;-81
2023/05/16 13:32:26;;;;;;;9.10;4.50;;;;;;;;;;6120395;23;20463;-80
2023/05/16 13:35:00;;;;;;;10.30;5.18;;;;;;;;;;6119829;23;20018;-80
2023/05/16 13:37:27;;;;;;;6.78;4.13;;;;;;;;;;6120637;23;20101;-80
2023/05/16 13:39:54;;;;;;;6.20;3.20;;;;;;;;;;6121554;23;20018;-80
2023/05/16 13:42:29;;;;;;;6.03;3.20;;;;;;;;;;6120939;23;20767;-80
2023/05/16 13:44:56;;;;;;;4.22;3.47;;;;;;;;;;6121221;23;20044;-83
2023/05/16 13:47:31;;;;;;;5.95;3.88;;;;;;;;;;6095195;23;20026;-83
2023/05/16 13:50:03;;;;;;;4.55;3.70;;;;;;;;;;6120295;23;20358;-80
2023/05/16 13:52:37;;;;;;;4.10;3.47;;;;;;;;;;6119773;23;20348;-81
2023/05/16 13:55:05;;;;;;;10.30;3.95;;;;;;;;;;6120655;23;20026;-80
2023/05/16 13:57:32;;;;;;;;;;;;;;;;;;6121133;23;20061;-80
2023/05/16 14:00:11;;;;;;;6.57;3.60;;;;;;;;;;6120273;23;20330;-80
2023/05/16 14:02:58;;;;;;;5.38;3.75;;;;;;;;;;6119754;23;20054;-80
2023/05/16 14:05:38;;;;;;;5.53;3.75;;;;;;;;;;6088737;23;20034;-80
2023/05/16 14:08:06;;;;;;;4.80;3.78;;;;;;;;;;6089235;23;20022;-80
2023/05/16 14:10:40;;;;;;;9.32;3.92;;;;;;;;;;6091634;23;20146;-80
2023/05/16 14:13:07;;;;;;;6.60;3.72;;;;;;;;;;6091086;23;20547;-80
2023/05/16 14:15:34;;;;;;;6.05;4.10;;;;;;;;;;6089812;23;20452;-79
2023/05/16 14:18:08;;;;;;;6.32;4.05;;;;;;;;;;6089914;23;20022;-80
2023/05/16 14:20:35;;;;;;;7.07;3.78;;;;;;;;;;6090970;23;20019;-79
2023/05/16 14:23:09;;;;;;;6.53;3.70;;;;;;;;;;6090965;23;20022;-80
2023/05/16 14:25:36;;;;;;;;;;;;;;;;;;6091806;23;20023;-80
2023/05/16 14:28:03;;;;;;;6.55;4.00;;;;;;;;;;6091401;23;20276;-80
2023/05/16 14:30:38;;;;;;;7.22;4.07;;;;;;;;;;6091381;23;20089;-80
2023/05/16 14:33:05;;;;;;;10.20;4.07;;;;;;;;;;6091515;23;20030;-80
2023/05/16 14:35:39;;;;;;;6.55;4.28;;;;;;;;;;6090423;23;20113;-80
2023/05/16 14:38:07;;;;;;;6.35;4.47;;;;;;;;;;6090170;23;20097;-80
2023/05/16 14:40:34;;;;;;;5.88;3.92;;;;;;;;;;6091841;23;20101;-79
2023/05/16 14:43:08;;;;;;;10.20;4.10;;;;;;;;;;6090701;23;20086;-79
2023/05/16 14:45:35;;;;;;;8.25;4.18;;;;;;;;;;6090722;23;20026;-78
2023/05/16 14:48:09;;;;;;;11.98;4.60;;;;;;;;;;6089798;23;20030;-77
2023/05/16 14:50:50;;;;;;;8.60;4.60;;;;;;;;;;6090870;23;20081;-78
2023/05/16 14:53:24;;;;;;;8.38;4.63;;;;;;;;;;6089797;23;20026;-80
2023/05/16 14:55:58;;;;;;;8.35;4.28;;;;;;;;;;6089951;23;20081;-78
2023/05/16 14:58:31;;;;;;;7.60;3.80;;;;;;;;;;6091588;23;20018;-79
2023/05/16 15:01:06;;;;;;;7.60;4.35;;;;;;;;;;6091658;23;20027;-78
2023/05/16 15:03:33;;;;;;;;;;;;;;;;;;6089851;23;20149;-78
2023/05/16 15:06:13;;;;;;;7.82;3.95;;;;;;;;;;6116969;23;19932;-79
2023/05/16 15:08:47;;;;;;;6.03;3.83;;;;;;;;;;6119439;23;20458;-78